createdAt,value
2019-05-22T00:00:48.805Z,94.70
2019-05-22T00:03:28.327Z,94.90
2019-05-22T00:05:58.299Z,95.00
2019-05-22T00:08:27.683Z,94.80
2019-05-22T00:10:58.225Z,95.30
2019-05-22T00:13:34.745Z,95.30
2019-05-22T00:16:03.990Z,95.00
2019-05-22T00:18:33.864Z,95.20
2019-05-22T00:21:04.591Z,94.90
2019-05-22T00:23:33.524Z,95.10
2019-05-22T00:26:02.546Z,95.30
2019-05-22T00:28:32.109Z,95.00
2019-05-22T00:31:02.646Z,94.80
2019-05-22T00:33:31.461Z,94.40
2019-05-22T00:36:00.751Z,95.50
2019-05-22T00:38:31.740Z,95.80
2019-05-22T00:41:05.360Z,95.20
2019-05-22T00:43:42.100Z,95.00
2019-05-22T00:46:13.152Z,94.80
2019-05-22T00:48:46.289Z,95.20
2019-05-22T00:51:29.052Z,94.90
2019-05-22T00:53:59.897Z,95.20
2019-05-22T00:56:37.206Z,95.80
2019-05-22T00:59:21.358Z,94.80
2019-05-22T01:01:54.115Z,95.80
2019-05-22T01:04:24.464Z,95.20
2019-05-22T01:06:55.039Z,94.60
2019-05-22T01:09:25.468Z,95.20
2019-05-22T01:11:55.467Z,95.40
2019-05-22T01:14:25.247Z,96.20
2019-05-22T01:16:56.596Z,95.60
2019-05-22T01:19:27.071Z,95.80
2019-05-22T01:21:56.636Z,95.70
2019-05-22T01:24:25.418Z,95.00
2019-05-22T01:26:54.916Z,94.70
2019-05-22T01:29:23.983Z,94.70
2019-05-22T01:31:54.323Z,94.40
2019-05-22T01:34:24.882Z,95.00
2019-05-22T01:36:55.237Z,95.00
2019-05-22T01:39:28.504Z,95.30
2019-05-22T01:41:59.197Z,95.60
2019-05-22T01:44:28.465Z,94.90
2019-05-22T01:47:00.117Z,95.50
2019-05-22T01:49:30.557Z,95.30
2019-05-22T01:51:59.333Z,95.40
2019-05-22T01:54:28.596Z,95.80
2019-05-22T01:57:06.598Z,96.30
2019-05-22T01:59:36.891Z,96.10
2019-05-22T02:02:08.721Z,95.50
2019-05-22T02:04:38.692Z,95.70
2019-05-22T02:07:09.505Z,94.70
2019-05-22T02:09:40.846Z,95.10
2019-05-22T02:12:16.770Z,95.20
2019-05-22T02:14:50.013Z,94.90
2019-05-22T02:17:22.501Z,95.50
2019-05-22T02:19:51.878Z,94.80
2019-05-22T02:22:20.584Z,94.60
2019-05-22T02:24:50.165Z,94.90
2019-05-22T02:27:19.836Z,95.20
2019-05-22T02:29:49.560Z,94.80
2019-05-22T02:32:20.716Z,95.30
2019-05-22T02:34:50.169Z,94.90
2019-05-22T02:37:20.587Z,95.50
2019-05-22T02:39:50.357Z,95.60
2019-05-22T02:42:26.006Z,95.00
2019-05-22T02:44:55.550Z,95.80
2019-05-22T02:47:25.140Z,95.60
2019-05-22T02:49:56.044Z,94.70
2019-05-22T02:52:25.361Z,95.30
2019-05-22T02:54:55.385Z,94.50
2019-05-22T02:57:26.455Z,95.10
2019-05-22T02:59:55.792Z,94.80
2019-05-22T03:02:26.465Z,94.30
2019-05-22T03:04:58.328Z,94.60
2019-05-22T03:07:27.510Z,95.30
2019-05-22T03:09:56.822Z,93.90
2019-05-22T03:12:27.299Z,94.60
2019-05-22T03:14:56.064Z,94.30
2019-05-22T03:17:30.738Z,93.90
2019-05-22T03:20:03.636Z,93.90
2019-05-22T03:22:53.632Z,93.90
2019-05-22T03:25:24.017Z,93.80
2019-05-22T03:27:52.856Z,94.30
2019-05-22T03:30:34.433Z,94.30
2019-05-22T03:33:06.361Z,94.20
2019-05-22T03:35:38.638Z,94.20
2019-05-22T03:38:09.615Z,93.90
2019-05-22T03:40:39.499Z,93.60
2019-05-22T03:43:22.573Z,93.50
2019-05-22T03:45:52.070Z,93.40
2019-05-22T03:48:22.445Z,93.10
2019-05-22T03:50:53.154Z,93.00
2019-05-22T03:53:23.543Z,92.90
2019-05-22T03:55:53.524Z,92.70
2019-05-22T03:58:23.401Z,91.90
2019-05-22T04:00:53.289Z,92.30
2019-05-22T04:03:23.279Z,92.20
2019-05-22T04:05:52.750Z,91.80
2019-05-22T04:08:24.145Z,92.20
2019-05-22T04:10:59.895Z,91.80
2019-05-22T04:13:29.046Z,91.70
2019-05-22T04:15:58.719Z,91.30
2019-05-22T04:18:28.098Z,91.60
2019-05-22T04:20:58.694Z,91.10
2019-05-22T04:23:27.423Z,90.90
2019-05-22T04:25:57.782Z,90.40
2019-05-22T04:28:27.879Z,90.50
2019-05-22T04:30:59.929Z,90.20
2019-05-22T04:33:30.706Z,89.30
2019-05-22T04:36:01.960Z,90.00
2019-05-22T04:38:31.491Z,89.10
2019-05-22T04:41:03.259Z,88.50
2019-05-22T04:43:34.117Z,87.90
2019-05-22T04:46:06.510Z,87.30
2019-05-22T04:48:36.589Z,87.10
2019-05-22T04:51:24.090Z,86.80
2019-05-22T04:53:53.463Z,86.20
2019-05-22T04:56:23.746Z,85.40
2019-05-22T04:58:53.169Z,85.20
2019-05-22T05:01:22.342Z,83.40
2019-05-22T05:03:51.234Z,83.60
2019-05-22T05:06:21.979Z,83.10
2019-05-22T05:08:51.361Z,82.70
2019-05-22T05:11:20.836Z,82.20
2019-05-22T05:13:49.560Z,80.70
2019-05-22T05:16:18.479Z,81.10
2019-05-22T05:18:47.198Z,79.60
2019-05-22T05:21:16.269Z,80.30
2019-05-22T05:23:44.978Z,78.00
2019-05-22T05:26:14.483Z,78.50
2019-05-22T05:28:43.802Z,80.70
2019-05-22T05:31:13.592Z,79.70
2019-05-22T05:33:51.382Z,78.20
2019-05-22T05:36:20.366Z,78.30
2019-05-22T05:38:49.136Z,77.20
2019-05-22T05:41:17.923Z,76.40
2019-05-22T05:43:47.598Z,74.90
2019-05-22T05:46:16.337Z,75.00
2019-05-22T05:48:47.494Z,73.30
2019-05-22T05:51:22.242Z,72.50
2019-05-22T05:54:00.041Z,71.30
2019-05-22T05:56:31.839Z,71.20
2019-05-22T05:59:03.139Z,70.00
2019-05-22T06:01:33.777Z,69.80
2019-05-22T06:04:04.077Z,71.10
2019-05-22T06:06:36.273Z,69.50
2019-05-22T06:09:08.497Z,70.20
2019-05-22T06:11:56.330Z,67.10
2019-05-22T06:14:28.691Z,66.50
2019-05-22T06:17:26.106Z,66.00
2019-05-22T06:20:01.122Z,64.80
2019-05-22T06:22:30.005Z,63.70
2019-05-22T06:25:02.051Z,64.20
2019-05-22T06:27:43.157Z,62.10
2019-05-22T06:30:17.723Z,60.70
2019-05-22T06:33:13.560Z,60.40
2019-05-22T06:35:44.387Z,60.00
2019-05-22T06:38:32.520Z,59.70
2019-05-22T06:41:01.314Z,58.60
2019-05-22T06:43:33.747Z,59.00
2019-05-22T06:46:02.825Z,58.60
2019-05-22T06:48:31.715Z,59.10
2019-05-22T06:51:00.492Z,58.00
2019-05-22T06:53:29.218Z,57.80
2019-05-22T06:55:58.006Z,56.90
2019-05-22T06:58:27.402Z,56.50
2019-05-22T07:00:56.271Z,55.80
2019-05-22T07:03:25.370Z,56.90
2019-05-22T07:05:54.752Z,53.60
2019-05-22T07:08:23.987Z,54.30
2019-05-22T07:10:53.382Z,57.50
2019-05-22T07:13:22.299Z,55.80
2019-05-22T07:15:52.339Z,55.50
2019-05-22T07:18:22.695Z,53.80
2019-05-22T07:20:52.835Z,52.90
2019-05-22T07:23:23.541Z,52.50
2019-05-22T07:25:52.841Z,51.60
2019-05-22T07:28:23.325Z,51.10
2019-05-22T07:30:52.627Z,49.40
2019-05-22T07:33:23.357Z,48.60
2019-05-22T07:36:08.442Z,49.30
2019-05-22T07:38:22.708Z,50.00
2019-05-22T07:40:53.042Z,49.60
2019-05-22T07:43:23.161Z,50.00
2019-05-22T07:45:52.773Z,48.80
2019-05-22T07:48:23.570Z,48.80
2019-05-22T07:50:54.384Z,46.40
2019-05-22T07:53:25.109Z,48.30
2019-05-22T07:55:54.840Z,48.30
2019-05-22T07:58:24.040Z,49.00
2019-05-22T08:00:55.923Z,46.80
2019-05-22T08:03:25.165Z,45.40
2019-05-22T08:05:56.390Z,45.70
2019-05-22T08:08:26.504Z,45.60
2019-05-22T08:10:59.533Z,44.70
2019-05-22T08:13:29.167Z,43.70
2019-05-22T08:15:58.270Z,42.20
2019-05-22T08:18:29.882Z,41.90
2019-05-22T08:20:59.074Z,42.10
2019-05-22T08:23:28.366Z,40.90
2019-05-22T08:25:59.459Z,39.40
2019-05-22T08:28:29.987Z,39.40
2019-05-22T08:30:59.665Z,39.30
2019-05-22T08:33:29.255Z,38.00
2019-05-22T08:35:58.703Z,39.50
2019-05-22T08:38:29.750Z,37.70
2019-05-22T08:41:00.060Z,38.20
2019-05-22T08:43:31.170Z,36.90
2019-05-22T08:46:01.237Z,37.50
2019-05-22T08:48:31.426Z,36.90
2019-05-22T08:51:01.182Z,35.20
2019-05-22T08:53:44.415Z,34.30
2019-05-22T08:56:01.355Z,36.60
2019-05-22T08:58:30.176Z,35.00
2019-05-22T09:00:59.193Z,35.00
2019-05-22T09:03:27.892Z,36.10
2019-05-22T09:05:56.725Z,33.80
2019-05-22T09:08:25.613Z,33.40
2019-05-22T09:10:54.402Z,32.50
2019-05-22T09:13:23.293Z,31.70
2019-05-22T09:15:52.700Z,33.00
2019-05-22T09:18:22.753Z,31.50
2019-05-22T09:20:52.128Z,32.30
2019-05-22T09:23:21.314Z,31.00
2019-05-22T09:25:50.389Z,31.80
2019-05-22T09:28:19.386Z,33.20
2019-05-22T09:30:48.290Z,31.90
2019-05-22T09:33:18.643Z,31.00
2019-05-22T09:35:47.828Z,31.50
2019-05-22T09:38:17.025Z,30.80
2019-05-22T09:40:46.310Z,31.20
2019-05-22T09:43:15.326Z,30.10
2019-05-22T09:45:44.031Z,29.30
2019-05-22T09:48:12.812Z,29.50
2019-05-22T09:50:42.388Z,28.40
2019-05-22T09:53:11.382Z,28.50
2019-05-22T09:55:40.385Z,29.90
2019-05-22T09:58:09.472Z,29.10
2019-05-22T10:00:38.555Z,28.70
2019-05-22T10:03:07.630Z,29.00
2019-05-22T10:05:37.915Z,28.70
2019-05-22T10:08:07.594Z,28.90
2019-05-22T10:10:36.805Z,28.40
2019-05-22T10:13:06.498Z,26.20
2019-05-22T10:15:35.290Z,26.70
2019-05-22T10:18:05.684Z,26.90
2019-05-22T10:20:34.564Z,26.50
2019-05-22T10:23:14.819Z,28.20
2019-05-22T10:25:35.366Z,27.20
2019-05-22T10:28:06.057Z,26.40
2019-05-22T10:30:35.026Z,25.10
2019-05-22T10:33:04.613Z,25.80
2019-05-22T10:35:34.698Z,26.30
2019-05-22T10:38:03.599Z,27.20
2019-05-22T10:40:32.670Z,27.90
2019-05-22T10:43:02.144Z,29.90
2019-05-22T10:45:30.862Z,31.40
2019-05-22T10:47:59.643Z,31.40
2019-05-22T10:50:28.513Z,32.20
2019-05-22T10:52:57.512Z,30.10
2019-05-22T10:55:27.072Z,30.00
2019-05-22T10:57:55.962Z,28.10
2019-05-22T11:00:26.212Z,26.40
2019-05-22T11:02:55.372Z,27.60
2019-05-22T11:05:24.492Z,26.20
2019-05-22T11:07:53.283Z,25.80
2019-05-22T11:10:24.468Z,25.30
2019-05-22T11:12:54.042Z,27.00
2019-05-22T11:15:23.621Z,27.30
2019-05-22T11:17:53.012Z,27.10
2019-05-22T11:20:22.092Z,27.30
2019-05-22T11:22:50.804Z,26.60
2019-05-22T11:25:20.410Z,27.10
2019-05-22T11:27:49.874Z,28.10
2019-05-22T11:30:20.290Z,27.20
2019-05-22T11:32:49.177Z,28.10
2019-05-22T11:35:19.158Z,29.90
2019-05-22T11:37:48.267Z,28.90
2019-05-22T11:40:18.034Z,29.80
2019-05-22T11:42:47.905Z,32.90
2019-05-22T11:45:17.749Z,33.80
2019-05-22T11:47:46.662Z,36.30
2019-05-22T11:50:16.755Z,34.90
2019-05-22T11:52:46.245Z,32.50
2019-05-22T11:55:16.724Z,31.90
2019-05-22T11:57:48.024Z,32.50
2019-05-22T12:00:20.114Z,33.70
2019-05-22T12:02:49.566Z,32.80
2019-05-22T12:05:19.167Z,33.70
2019-05-22T12:07:48.841Z,33.10
2019-05-22T12:10:20.737Z,32.60
2019-05-22T12:12:52.140Z,31.00
2019-05-22T12:15:25.086Z,34.40
2019-05-22T12:17:54.244Z,35.90
2019-05-22T12:20:26.234Z,36.90
2019-05-22T12:22:55.652Z,37.50
2019-05-22T12:25:25.732Z,38.00
2019-05-22T12:27:55.037Z,39.30
2019-05-22T12:30:24.652Z,37.90
2019-05-22T12:32:53.459Z,38.80
2019-05-22T12:35:22.164Z,39.00
2019-05-22T12:37:50.951Z,38.90
2019-05-22T12:40:22.045Z,39.60
2019-05-22T12:42:52.621Z,39.60
2019-05-22T12:45:27.399Z,39.80
2019-05-22T12:47:56.803Z,40.70
2019-05-22T12:50:29.327Z,40.90
2019-05-22T12:52:58.922Z,40.90
2019-05-22T12:55:27.935Z,39.50
2019-05-22T12:57:56.726Z,40.80
2019-05-22T13:00:27.423Z,42.80
2019-05-22T13:02:58.712Z,43.00
2019-05-22T13:05:27.682Z,41.10
2019-05-22T13:07:57.670Z,41.90
2019-05-22T13:10:28.093Z,43.60
2019-05-22T13:12:57.489Z,44.20
2019-05-22T13:15:27.866Z,45.00
2019-05-22T13:17:58.079Z,44.50
2019-05-22T13:20:42.674Z,45.50
2019-05-22T13:23:04.687Z,44.80
2019-05-22T13:25:36.410Z,46.20
2019-05-22T13:28:07.085Z,46.90
2019-05-22T13:30:39.064Z,46.60
2019-05-22T13:33:11.332Z,47.00
2019-05-22T13:35:41.837Z,47.40
2019-05-22T13:38:12.333Z,49.00
2019-05-22T13:40:41.547Z,50.30
2019-05-22T13:43:11.438Z,50.40
2019-05-22T13:45:40.721Z,49.50
2019-05-22T13:48:09.725Z,50.30
2019-05-22T13:50:39.236Z,50.80
2019-05-22T13:53:08.844Z,50.90
2019-05-22T13:55:37.761Z,51.10
2019-05-22T13:58:07.115Z,49.60
2019-05-22T14:00:36.811Z,50.10
2019-05-22T14:03:06.524Z,50.40
2019-05-22T14:05:36.513Z,51.10
2019-05-22T14:08:06.730Z,52.40
2019-05-22T14:10:35.504Z,52.00
2019-05-22T14:13:05.134Z,52.00
2019-05-22T14:15:48.819Z,52.50
2019-05-22T14:18:04.974Z,53.40
2019-05-22T14:20:33.695Z,54.00
2019-05-22T14:23:02.417Z,53.40
2019-05-22T14:25:31.715Z,55.00
2019-05-22T14:28:00.486Z,55.50
2019-05-22T14:30:29.483Z,57.10
2019-05-22T14:33:04.249Z,57.70
2019-05-22T14:35:47.097Z,56.50
2019-05-22T14:38:04.229Z,55.70
2019-05-22T14:40:33.620Z,55.30
2019-05-22T14:43:02.633Z,55.00
2019-05-22T14:45:31.540Z,53.60
2019-05-22T14:48:00.322Z,52.70
2019-05-22T14:50:32.767Z,52.80
2019-05-22T14:53:01.224Z,52.90
2019-05-22T14:55:32.510Z,54.10
2019-05-22T14:58:01.639Z,52.00
2019-05-22T15:00:31.266Z,52.40
2019-05-22T15:03:00.098Z,49.90
2019-05-22T15:05:29.551Z,48.60
2019-05-22T15:07:58.248Z,48.80
2019-05-22T15:10:28.953Z,47.30
2019-05-22T15:12:57.742Z,48.30
2019-05-22T15:15:26.528Z,46.60
2019-05-22T15:17:55.320Z,45.60
2019-05-22T15:20:27.768Z,45.00
2019-05-22T15:22:57.165Z,43.10
2019-05-22T15:25:27.657Z,44.70
2019-05-22T15:27:56.961Z,43.90
2019-05-22T15:30:26.152Z,44.10
2019-05-22T15:32:54.855Z,46.40
2019-05-22T15:35:24.240Z,46.90
2019-05-22T15:37:54.033Z,48.40
2019-05-22T15:40:24.432Z,48.40
2019-05-22T15:42:54.416Z,49.90
2019-05-22T15:45:27.417Z,51.40
2019-05-22T15:47:58.182Z,52.30
2019-05-22T15:50:30.382Z,53.60
2019-05-22T15:53:06.717Z,53.40
2019-05-22T15:55:36.656Z,54.40
2019-05-22T15:58:06.279Z,54.40
2019-05-22T16:00:37.047Z,53.40
2019-05-22T16:03:15.247Z,53.80
2019-05-22T16:05:45.183Z,53.30
2019-05-22T16:08:15.036Z,52.80
2019-05-22T16:10:46.001Z,53.60
2019-05-22T16:13:16.946Z,52.60
2019-05-22T16:15:49.042Z,53.00
2019-05-22T16:18:22.225Z,55.00
2019-05-22T16:20:52.101Z,55.70
2019-05-22T16:23:22.155Z,56.60
2019-05-22T16:25:52.973Z,57.30
2019-05-22T16:28:23.590Z,58.50
2019-05-22T16:30:53.305Z,60.10
2019-05-22T16:33:23.929Z,61.80
2019-05-22T16:35:53.090Z,62.50
2019-05-22T16:38:23.476Z,63.20
2019-05-22T16:40:52.617Z,63.50
2019-05-22T16:43:21.549Z,63.70
2019-05-22T16:45:51.518Z,63.30
2019-05-22T16:48:29.177Z,63.70
2019-05-22T16:50:52.805Z,64.10
2019-05-22T16:53:23.540Z,64.50
2019-05-22T16:55:53.021Z,64.50
2019-05-22T16:58:22.730Z,64.60
2019-05-22T17:00:56.279Z,64.50
2019-05-22T17:03:24.238Z,64.60
2019-05-22T17:05:53.818Z,65.40
2019-05-22T17:08:22.886Z,64.90
2019-05-22T17:10:52.324Z,64.80
2019-05-22T17:13:21.285Z,64.90
2019-05-22T17:15:50.007Z,65.70
2019-05-22T17:18:20.146Z,65.80
2019-05-22T17:20:49.594Z,66.80
2019-05-22T17:23:18.417Z,66.60
2019-05-22T17:25:47.701Z,67.00
2019-05-22T17:28:17.802Z,68.00
2019-05-22T17:30:47.052Z,68.50
2019-05-22T17:33:16.450Z,70.00
2019-05-22T17:35:46.129Z,69.80
2019-05-22T17:38:14.943Z,70.90
2019-05-22T17:40:43.673Z,71.60
2019-05-22T17:43:14.271Z,71.90
2019-05-22T17:45:44.865Z,72.40
2019-05-22T17:48:16.233Z,72.40
2019-05-22T17:50:47.192Z,72.00
2019-05-22T17:53:17.984Z,72.20
2019-05-22T17:55:48.569Z,72.00
2019-05-22T17:58:18.382Z,72.40
2019-05-22T18:00:49.322Z,72.20
2019-05-22T18:03:18.210Z,72.80
2019-05-22T18:05:47.058Z,73.20
2019-05-22T18:08:16.885Z,73.70
2019-05-22T18:10:48.535Z,74.00
2019-05-22T18:13:17.441Z,74.80
2019-05-22T18:15:46.846Z,73.80
2019-05-22T18:18:16.307Z,74.20
2019-05-22T18:20:45.621Z,75.10
2019-05-22T18:23:14.711Z,72.70
2019-05-22T18:25:44.961Z,72.90
2019-05-22T18:28:14.389Z,73.60
2019-05-22T18:30:43.932Z,74.60
2019-05-22T18:33:13.647Z,75.80
2019-05-22T18:35:42.546Z,76.40
2019-05-22T18:38:11.262Z,76.30
2019-05-22T18:40:40.184Z,76.80
2019-05-22T18:43:09.973Z,77.00
2019-05-22T18:45:40.579Z,78.00
2019-05-22T18:48:10.025Z,78.50
2019-05-22T18:50:39.205Z,78.50
2019-05-22T18:53:08.115Z,79.30
2019-05-22T18:55:36.840Z,79.90
2019-05-22T18:58:05.563Z,79.60
2019-05-22T19:00:34.552Z,79.80
2019-05-22T19:03:03.431Z,80.50
2019-05-22T19:05:33.720Z,80.40
2019-05-22T19:08:02.528Z,80.90
2019-05-22T19:10:31.951Z,81.00
2019-05-22T19:13:00.817Z,81.40
2019-05-22T19:15:29.844Z,81.70
2019-05-22T19:17:58.631Z,81.60
2019-05-22T19:20:27.594Z,81.80
2019-05-22T19:23:01.053Z,81.90
2019-05-22T19:25:27.313Z,81.90
2019-05-22T19:27:56.047Z,81.10
2019-05-22T19:30:25.941Z,81.60
2019-05-22T19:32:54.920Z,82.30
2019-05-22T19:35:23.635Z,81.30
2019-05-22T19:37:52.605Z,82.50
2019-05-22T19:40:21.901Z,82.50
2019-05-22T19:42:51.183Z,82.80
2019-05-22T19:45:22.271Z,82.50
2019-05-22T19:47:54.513Z,83.00
2019-05-22T19:50:25.305Z,83.00
2019-05-22T19:52:55.636Z,83.30
2019-05-22T19:55:28.709Z,83.20
2019-05-22T19:57:58.007Z,83.10
2019-05-22T20:00:28.086Z,82.20
2019-05-22T20:02:57.319Z,83.00
2019-05-22T20:05:26.606Z,83.30
2019-05-22T20:07:55.821Z,83.30
2019-05-22T20:10:25.415Z,82.80
2019-05-22T20:12:55.383Z,83.20
2019-05-22T20:15:25.010Z,82.80
2019-05-22T20:17:54.297Z,82.80
2019-05-22T20:20:25.704Z,82.80
2019-05-22T20:22:55.177Z,83.80
2019-05-22T20:25:24.570Z,83.90
2019-05-22T20:27:53.329Z,83.90
2019-05-22T20:30:24.765Z,83.90
2019-05-22T20:32:53.618Z,83.80
2019-05-22T20:35:22.410Z,83.70
2019-05-22T20:37:51.633Z,84.20
2019-05-22T20:40:22.107Z,84.40
2019-05-22T20:42:51.238Z,83.90
2019-05-22T20:45:21.826Z,83.30
2019-05-22T20:47:55.130Z,83.60
2019-05-22T20:50:25.306Z,83.90
2019-05-22T20:52:55.281Z,83.80
2019-05-22T20:55:24.206Z,83.40
2019-05-22T20:57:53.389Z,84.10
2019-05-22T21:00:23.307Z,84.40
2019-05-22T21:02:54.943Z,84.40
2019-05-22T21:05:23.949Z,84.00
2019-05-22T21:07:55.699Z,83.60
2019-05-22T21:10:25.492Z,84.20
2019-05-22T21:12:54.378Z,84.00
2019-05-22T21:15:23.658Z,84.80
2019-05-22T21:17:52.553Z,84.50
2019-05-22T21:20:25.465Z,84.70
2019-05-22T21:22:54.252Z,83.90
2019-05-22T21:25:23.432Z,84.20
2019-05-22T21:27:52.141Z,84.10
2019-05-22T21:30:24.057Z,84.20
2019-05-22T21:32:53.628Z,84.20
2019-05-22T21:35:23.716Z,83.90
2019-05-22T21:37:52.969Z,84.70
2019-05-22T21:40:22.929Z,85.40
2019-05-22T21:42:53.936Z,85.80
2019-05-22T21:45:24.189Z,86.20
2019-05-22T21:47:53.317Z,86.50
2019-05-22T21:50:23.817Z,86.60
2019-05-22T21:52:53.490Z,86.30
2019-05-22T21:55:24.186Z,86.50
2019-05-22T21:57:53.467Z,86.40
2019-05-22T22:00:26.757Z,87.10
2019-05-22T22:02:56.137Z,88.00
2019-05-22T22:05:25.555Z,87.70
2019-05-22T22:07:54.340Z,87.70
2019-05-22T22:10:23.090Z,87.70
2019-05-22T22:12:53.569Z,87.60
2019-05-22T22:15:22.665Z,87.90
2019-05-22T22:17:52.340Z,87.50
2019-05-22T22:20:21.933Z,87.30
2019-05-22T22:22:51.412Z,87.80
2019-05-22T22:25:22.225Z,88.00
2019-05-22T22:27:50.994Z,87.60
2019-05-22T22:30:23.927Z,87.30
2019-05-22T22:32:52.633Z,87.70
2019-05-22T22:35:21.807Z,87.70
2019-05-22T22:37:50.586Z,87.90
2019-05-22T22:40:22.594Z,88.00
2019-05-22T22:42:52.942Z,87.70
2019-05-22T22:45:29.481Z,88.50
2019-05-22T22:47:58.672Z,88.00
2019-05-22T22:50:29.138Z,88.50
2019-05-22T22:52:58.667Z,88.50
2019-05-22T22:55:28.132Z,88.00
2019-05-22T22:57:57.141Z,87.70
2019-05-22T23:00:29.092Z,87.90
2019-05-22T23:02:59.096Z,88.20
2019-05-22T23:05:28.557Z,87.90
2019-05-22T23:07:58.628Z,87.50
2019-05-22T23:10:27.927Z,87.10
2019-05-22T23:12:56.897Z,88.00
2019-05-22T23:15:26.487Z,88.10
2019-05-22T23:17:55.957Z,88.00
2019-05-22T23:20:23.491Z,88.20
2019-05-22T23:22:51.849Z,87.70
2019-05-22T23:25:21.144Z,87.70
2019-05-22T23:27:50.938Z,87.20
2019-05-22T23:30:21.128Z,86.30
2019-05-22T23:32:51.130Z,86.50
2019-05-22T23:35:22.705Z,84.90
2019-05-22T23:37:51.789Z,85.60
2019-05-22T23:40:26.763Z,85.70
2019-05-22T23:42:56.926Z,85.40
2019-05-22T23:45:26.308Z,85.80
2019-05-22T23:48:12.107Z,85.20
2019-05-22T23:50:41.874Z,85.20
2019-05-22T23:53:12.367Z,84.50
2019-05-22T23:55:43.298Z,84.90
2019-05-22T23:58:14.125Z,85.00
